Flight Track Log - Related Links

Times and Time Zones

All times are in EDT time to prevent confusion due to time zone crossing. See the DAL268 flight status page for this flight to view local times or setup timezone preferences in your user account.

Time Position Orientation Groundspeed Altitude Reporting Facility
EDT Latitude Longitude Course Direction KTS MPH feet Rate Location/Type
Fri 11:57:41 PM 40.6370 -73.7800 North  Level FlightAware ADS-B
Sat 12:08:00 AM 40.4940 -73.3487 114° Southeast  Level FlightAware Approximate
Sat 12:09:00 AM 40.4478 -73.1783 119° Southeast  Level FlightAware Approximate
Sat 12:10:00 AM 40.3833 -73.0161 90° East  Level FlightAware Approximate
Sat 12:11:00 AM 40.4123 -72.8384 75° East  Level FlightAware Approximate
Sat 12:12:00 AM 40.4458 -72.6627 66° East  Level FlightAware Approximate
Sat 12:12:59 AM 40.6360 -73.7790 180° South 2 2  Level FlightAware ADS-B
Sat 12:14:20 AM 40.6350 -73.7780 143° Southeast 20 23 71 Level FlightAware ADS-B
Sat 12:15:00 AM 40.6340 -73.7800 237° Southwest 25 29 78 Level FlightAware ADS-B
Sat 12:15:40 AM 40.6350 -73.7830 294° West 26 30 81 Level FlightAware ADS-B
Sat 12:16:41 AM 40.6370 -73.7860 311° West 28 32 85 Level FlightAware ADS-B
Sat 12:17:24 AM 40.6380 -73.7880 303° West 27 31 91 Level FlightAware ADS-B
Sat 12:17:47 AM 40.6380 -73.7900 270° West 28 32 97 Level FlightAware ADS-B
Sat 12:18:32 AM 40.6400 -73.7930 311° West 29 33 100 Level FlightAware ADS-B
Sat 12:19:12 AM 40.6410 -73.7950 303° West 31 36 106 Level FlightAware ADS-B
Sat 12:20:37 AM 40.6420 -73.8000 285° West 23 26 113 Level FlightAware ADS-B
Sat 12:21:21 AM 40.6430 -73.8020 303° West 30 35 130 Level FlightAware ADS-B
Sat 12:22:44 AM 40.6460 -73.8070 308° West 29 33 142 Level FlightAware ADS-B
Sat 12:24:55 AM 40.6480 -73.8130 123° Southeast 27 31 169 Level FlightAware ADS-B
Sat 12:25:00 AM 40.8305 -73.4679 123° Southeast  Level Estimated
Sat 12:25:20 AM 40.6510 -73.8120 14° North 27 31  Level FlightAware ADS-B
Sat 12:25:47 AM 40.6490 -73.8150 229° Southwest 11 13 268 Level FlightAware ADS-B
Sat 12:27:39 AM 40.6490 -73.8160 270° West 16 18 298 Level FlightAware ADS-B
Sat 12:28:06 AM 40.6480 -73.8160 180° South 2 2 554 Level FlightAware ADS-B
Sat 12:29:17 AM 40.6380 -73.7930 120° Southeast 175 201 699 Level FlightAware ADS-B
Sat 12:29:49 AM 40.6230 -73.7600 121° Southeast 198 228 1,200 2,133 Climbing FlightAware ADS-B
Sat 12:30:02 AM 40.6170 -73.7480 123° Southeast 198 228 1,600 1,350 Climbing FlightAware ADS-B
Sat 12:30:29 AM 40.5960 -73.7240 139° Southeast 233 268 2,100 1,222 Climbing FlightAware ADS-B
Sat 12:30:56 AM 40.5740 -73.6940 134° Southeast 260 299 2,700 1,256 Climbing FlightAware ADS-B
Sat 12:31:12 AM 40.5670 -73.6680 110° East 284 327 3,000 1,154 Climbing FlightAware ADS-B
Sat 12:31:22 AM 40.5660 -73.6510 94° East 299 344 3,200 1,610 Climbing FlightAware ADS-B
Sat 12:31:53 AM 40.5670 -73.6050 88° East 314 361 4,100 2,000 Climbing FlightAware ADS-B
Sat 12:32:16 AM 40.5690 -73.5670 86° East 316 364 5,000 3,000 Climbing FlightAware ADS-B
Sat 12:32:31 AM 40.5723 -73.5176 85° East 327 376 6,000 3,789 Climbing FlightAware ADS-B
Sat 12:32:35 AM 40.5726 -73.5098 87° East 327 376 6,200 3,000 Climbing FlightAware ADS-B
Sat 12:32:41 AM 40.5723 -73.4977 92° East 327 376 6,500 2,727 Climbing FlightAware ADS-B
Sat 12:32:46 AM 40.5713 -73.4879 98° East 327 376 6,700 2,400 Climbing FlightAware ADS-B
Sat 12:32:51 AM 40.5696 -73.4783 103° East 327 376 6,900 2,250 Climbing FlightAware ADS-B
Sat 12:32:54 AM 40.5680 -73.4725 110° East 327 376 7,000 2,667 Climbing FlightAware ADS-B
Sat 12:33:00 AM 40.5652 -73.4614 108° East 327 376 7,300 2,571 Climbing FlightAware ADS-B
Sat 12:33:15 AM 40.5566 -73.4337 112° Southeast 328 377 7,900 2,538 Climbing FlightAware ADS-B
Sat 12:33:26 AM 40.5499 -73.4133 113° Southeast 331 381 8,400 2,625 Climbing FlightAware ADS-B
Sat 12:33:31 AM 40.5469 -73.4041 113° Southeast 332 382 8,600 2,700 Climbing FlightAware ADS-B
Sat 12:33:46 AM 40.5365 -73.3771 117° Southeast 333 383 9,300 2,710 Climbing FlightAware ADS-B
Sat 12:34:02 AM 40.5246 -73.3483 119° Southeast 336 387 10,000 2,043 Climbing FlightAware ADS-B
Sat 12:34:33 AM 40.5027 -73.2905 116° Southeast 353 406 10,900 1,475 Climbing FlightAware ADS-B
Sat 12:35:03 AM 40.4795 -73.2302 117° Southeast 381 438 11,500 1,200 Climbing FlightAware ADS-B
Sat 12:35:18 AM 40.4684 -73.1983 115° Southeast 393 452 11,800 1,043 Climbing FlightAware ADS-B
Sat 12:35:26 AM 40.4636 -73.1797 109° East 403 464 11,900 857 Climbing FlightAware ADS-B
Sat 12:35:32 AM 40.4611 -73.1652 103° East 410 472 12,000 1,385 Climbing FlightAware ADS-B
Sat 12:35:39 AM 40.4596 -73.1476 96° East 416 479 12,200 1,636 Climbing FlightAware ADS-B
Sat 12:35:43 AM 40.4592 -73.1376 93° East 421 484 12,300 1,412 Climbing FlightAware ADS-B
Sat 12:35:56 AM 40.4612 -73.1041 86° East 431 496 12,600 1,304 Climbing FlightAware ADS-B
Sat 12:36:06 AM 40.4658 -73.0782 77° East 438 504 12,800 1,263 Climbing FlightAware ADS-B
Sat 12:36:15 AM 40.4731 -73.0560 67° East 443 510 13,000 2,077 Climbing FlightAware ADS-B
Sat 12:36:32 AM 40.4924 -73.0176 57° Northeast 448 516 13,700 2,195 Climbing FlightAware ADS-B
Sat 12:36:56 AM 40.5241 -72.9659 51° Northeast 454 522 14,500 2,172 Climbing FlightAware ADS-B
Sat 12:37:30 AM 40.5634 -72.8862 57° Northeast 462 532 15,800 2,125 Climbing FlightAware ADS-B
Sat 12:38:32 AM 40.6224 -72.7273 64° Northeast 475 547 17,900 1,935 Climbing FlightAware ADS-B
Sat 12:39:03 AM 40.6523 -72.6457 64° Northeast 483 556 18,800 1,742 Climbing FlightAware ADS-B
Sat 12:39:34 AM 40.6820 -72.5627 65° Northeast 489 563 19,700 1,672 Climbing FlightAware ADS-B
Sat 12:40:04 AM 40.7112 -72.4814 65° Northeast 496 571 20,500 1,672 Climbing FlightAware ADS-B
Sat 12:40:35 AM 40.7412 -72.3962 65° Northeast 497 572 21,400 1,600 Climbing FlightAware ADS-B
Sat 12:41:19 AM 40.7855 -72.2731 65° Northeast 510 587 22,500 1,463 Climbing FlightAware ADS-B
Sat 12:41:57 AM 40.8220 -72.1680 65° Northeast 516 594 23,400 1,385 Climbing FlightAware ADS-B
Sat 12:42:37 AM 40.8630 -72.0530 65° Northeast 523 602 24,300 1,275 Climbing FlightAware ADS-B
Sat 12:43:17 AM 40.9040 -71.9360 65° Northeast 531 611 25,100 1,286 Climbing FlightAware ADS-B
Sat 12:44:01 AM 40.9500 -71.8020 66° East 538 619 26,100 932 Climbing FlightAware ADS-B
Sat 12:45:00 AM 41.0070 -71.6440 64° Northeast 540 621 26,700 1,215 Climbing FlightAware ADS-B
Sat 12:45:20 AM 41.0335 -71.5644 66° East 545 627 27,700 2,235 Climbing FlightAware ADS-B
Sat 12:45:51 AM 41.0657 -71.4706 65° Northeast 542 624 28,600 167 Climbing FlightAware ADS-B
Sat 12:46:32 AM 41.0990 -71.3780 64° Northeast 544 626 27,900 1,367 Descending FlightAware ADS-B
Sat 12:47:10 AM 41.1430 -71.2460 66° East 532 612 30,400 2,325 Climbing FlightAware ADS-B
Sat 12:47:52 AM 41.1840 -71.1260 66° East 529 609 31,000 404 Climbing FlightAware ADS-B
Sat 12:48:39 AM 41.2350 -70.9750 66° East 528 608 31,000  Level FlightAware ADS-B
Sat 12:49:22 AM 41.2790 -70.8440 66° East 527 606 31,000  Level FlightAware ADS-B
Sat 12:50:03 AM 41.3180 -70.7280 66° East 526 605 31,000  Level FlightAware ADS-B
Sat 12:51:09 AM 41.3820 -70.5410 65° Northeast 526 605 31,000  Level FlightAware ADS-B
Sat 12:51:46 AM 41.4130 -70.4480 66° East 526 605 31,000  Level FlightAware ADS-B
Sat 12:52:35 AM 41.4540 -70.3240 66° East 526 605 31,000  Level FlightAware ADS-B
Sat 12:53:11 AM 41.4840 -70.2330 66° East 526 605 31,000  Level FlightAware ADS-B
Sat 12:53:59 AM 41.5240 -70.1120 66° East 526 605 31,000  Level FlightAware ADS-B
Sat 12:54:35 AM 41.5550 -70.0210 65° Northeast 526 605 31,000  Level FlightAware ADS-B
Sat 12:55:35 AM 41.6050 -69.8700 66° East 526 605 31,000  Level FlightAware ADS-B
Sat 12:56:18 AM 41.6850 -69.6120 67° East 31,000  Level FlightAware ADS-B
Sat 01:01:04 AM 41.9710 -68.7110 67° East 31,000  Level FlightAware ADS-B
Sat 01:01:44 AM 42.0090 -68.5890 67° East 533 613 31,000  Level FlightAware ADS-B
Sat 01:02:29 AM 42.0510 -68.4530 67° East 534 615 31,000  Level FlightAware ADS-B
Sat 01:03:24 AM 42.1040 -68.2800 68° East 536 617 31,000  Level FlightAware ADS-B
Sat 01:04:09 AM 42.1470 -68.1400 67° East 538 619 31,000  Level FlightAware ADS-B
Sat 01:04:41 AM 42.1760 -68.0460 67° East 539 620 31,000  Level FlightAware ADS-B
Sat 01:05:34 AM 42.2270 -67.8770 68° East 539 620 31,000  Level FlightAware ADS-B
Sat 01:06:28 AM 42.2720 -67.7280 68° East 539 620 31,000  Level FlightAware ADS-B
Sat 01:07:16 AM 42.3100 -67.6000 68° East 539 620 31,000  Level FlightAware ADS-B
Sat 01:07:52 AM 42.3380 -67.5050 68° East 539 620 31,000  Level FlightAware ADS-B
Sat 01:08:40 AM 42.3760 -67.3770 68° East 539 620 31,000  Level FlightAware ADS-B
Sat 01:09:16 AM 42.4050 -67.2810 68° East 539 620 31,000  Level FlightAware ADS-B
Sat 01:10:05 AM 42.4440 -67.1510 68° East 539 620 31,000  Level FlightAware ADS-B
Sat 01:10:41 AM 42.4730 -67.0550 68° East 539 620 31,000  Level FlightAware ADS-B
Sat 01:11:30 AM 42.5110 -66.9240 68° East 539 620 31,000  Level FlightAware ADS-B
Sat 01:12:06 AM 42.5400 -66.8280 68° East 539 620 31,000 450 Level FlightAware ADS-B
Sat 01:12:50 AM 42.6320 -66.4980 69° East 544 626 31,600 795 Climbing FlightAware ADS-B
Sat 01:13:29 AM 42.6650 -66.3830 69° East 548 631 32,100 643 Climbing FlightAware ADS-B
Sat 01:14:14 AM 42.6950 -66.2770 69° East 550 633 32,500 643 Climbing FlightAware ADS-B
Sat 01:14:53 AM 42.7420 -66.1120 69° East 553 636 33,000 345 Climbing FlightAware ADS-B
Sat 01:15:41 AM 42.7890 -65.9460 69° East 552 635 33,000  Level FlightAware ADS-B
Sat 01:16:16 AM 42.8200 -65.8360 69° East 551 634 33,000  Level FlightAware ADS-B
Sat 01:16:57 AM 42.8550 -65.7060 70° East 551 634 33,000  Level FlightAware ADS-B
Sat 01:17:46 AM 42.9010 -65.5400 69° East 553 636 33,000  Level FlightAware ADS-B
Sat 01:18:25 AM 42.9320 -65.4260 70° East 554 638 33,000  Level FlightAware ADS-B
Sat 01:19:04 AM 42.9640 -65.3110 69° East 554 638 33,000  Level FlightAware ADS-B
Sat 01:19:51 AM 43.0090 -65.1440 70° East 554 638 33,000  Level FlightAware ADS-B
Sat 01:20:26 AM 43.0450 -65.0130 69° East 556 640 33,000  Level FlightAware ADS-B
Sat 01:21:16 AM 43.0890 -64.8480 70° East 553 636 33,000  Level FlightAware ADS-B
Sat 01:21:58 AM 43.1240 -64.7160 70° East 553 636 33,000  Level FlightAware ADS-B
Sat 01:22:37 AM 43.1560 -64.5970 70° East 552 635 33,000  Level FlightAware ADS-B
Sat 01:23:16 AM 43.1930 -64.4550 70° East 552 635 33,000  Level FlightAware ADS-B
Sat 01:23:51 AM 43.2210 -64.3530 69° East 551 634 33,000  Level FlightAware ADS-B
Sat 01:24:41 AM 43.2560 -64.2120 71° East 551 634 33,000  Level FlightAware ADS-B
Sat 01:25:17 AM 43.2810 -64.1110 71° East 551 634 33,000  Level FlightAware ADS-B
Sat 01:25:57 AM 43.3240 -63.9500 70° East 553 636 33,000  Level FlightAware ADS-B
Sat 01:26:33 AM 43.3490 -63.8480 71° East 553 636 33,000  Level FlightAware ADS-B
Sat 01:27:29 AM 43.4060 -63.6330 70° East 551 634 33,000  Level FlightAware ADS-B
Sat 01:28:18 AM 43.4400 -63.4950 71° East 551 634 33,000  Level FlightAware ADS-B
Sat 01:28:54 AM 43.4660 -63.3940 70° East 551 634 33,000  Level FlightAware ADS-B
Sat 01:29:42 AM 43.5000 -63.2580 71° East 551 634 33,000  Level FlightAware ADS-B
Sat 01:30:18 AM 43.5250 -63.1560 71° East 551 634 33,000  Level FlightAware ADS-B
Sat 01:31:07 AM 43.5590 -63.0180 71° East 551 634 33,000  Level FlightAware ADS-B
Sat 01:31:43 AM 43.5850 -62.9160 71° East 551 634 33,000  Level FlightAware ADS-B
Sat 01:32:31 AM 43.6190 -62.7800 71° East 551 634 33,000  Level FlightAware ADS-B
Sat 01:33:07 AM 43.6440 -62.6780 71° East 551 634 33,000  Level FlightAware ADS-B
Sat 01:33:56 AM 43.6790 -62.5400 71° East 551 634 33,000  Level FlightAware ADS-B
Sat 01:34:45 AM 43.7130 -62.4010 71° East 551 634 33,000  Level FlightAware ADS-B
Sat 01:35:21 AM 43.7380 -62.2990 71° East 551 634 33,000  Level FlightAware ADS-B
Sat 01:36:21 AM 43.7810 -62.1280 71° East 551 634 33,000  Level FlightAware ADS-B
Sat 01:36:57 AM 43.8060 -62.0260 71° East 551 634 33,000  Level FlightAware ADS-B
Sat 01:38:12 AM 43.9167 -61.4667 71° East 550 633 33,000  Level Gander Center
Sat 01:44:07 AM 44.1990 -60.2750 71° East 551 634 33,000  Level FlightAware ADS-B
Sat 01:45:02 AM 44.2370 -60.1050 73° East 551 634 33,000  Level FlightAware ADS-B
Sat 01:46:14 AM 44.2930 -59.8420 73° East 546 628 33,000  Level FlightAware ADS-B
Sat 01:46:58 AM 44.3230 -59.7000 74° East 546 628 33,000  Level FlightAware ADS-B
Sat 01:47:57 AM 44.3640 -59.5110 73° East 547 629 33,000  Level FlightAware ADS-B
Sat 01:48:28 AM 44.3880 -59.3950 74° East 548 631 33,000  Level FlightAware ADS-B
Sat 01:49:10 AM 44.4190 -59.2450 74° East 549 632 33,000  Level FlightAware ADS-B
Sat 01:49:51 AM 44.4420 -59.1330 74° East 548 631 33,000  Level FlightAware ADS-B
Sat 01:50:27 AM 44.4720 -58.9870 74° East 547 629 33,000  Level FlightAware ADS-B
Sat 01:51:07 AM 44.4990 -58.8580 74° East 545 627 33,000  Level FlightAware ADS-B
Sat 01:51:52 AM 44.5310 -58.6980 74° East 545 627 33,000  Level FlightAware ADS-B
Sat 01:52:36 AM 44.5620 -58.5450 74° East 547 629 33,000  Level FlightAware ADS-B
Sat 01:53:16 AM 44.5890 -58.4090 74° East 544 626 33,000  Level FlightAware ADS-B
Sat 01:53:58 AM 44.6170 -58.2660 75° East 544 626 33,000  Level FlightAware ADS-B
Sat 01:54:54 AM 44.6550 -58.0760 74° East 544 626 33,000  Level FlightAware ADS-B
Sat 01:55:38 AM 44.6840 -57.9290 74° East 545 627 33,000  Level FlightAware ADS-B
Sat 01:56:31 AM 44.7160 -57.7660 75° East 546 628 33,000  Level FlightAware ADS-B
Sat 01:57:10 AM 44.7330 -57.6080 81° East 551 634 33,000  Level FlightAware ADS-B
Sat 01:58:12 AM 44.7330 -57.4190 90° East 551 634 33,000  Level FlightAware ADS-B
Sat 01:58:48 AM 44.7330 -57.3090 90° East 551 634 33,000  Level FlightAware ADS-B
Sat 01:59:36 AM 44.7330 -57.1630 90° East 551 634 33,000  Level FlightAware ADS-B
Sat 02:00:12 AM 44.7330 -57.0530 90° East 551 634 33,000  Level FlightAware ADS-B
Sat 02:00:52 AM 44.6910 -56.8230 104° East 551 634 33,000  Level FlightAware ADS-B
Sat 02:01:51 AM 44.6810 -56.6400 94° East 550 633 33,000  Level FlightAware ADS-B
Sat 02:02:27 AM 44.6760 -56.5310 94° East 550 633 33,000  Level FlightAware ADS-B
Sat 02:03:06 AM 44.6700 -56.4120 94° East 550 633 33,000  Level FlightAware ADS-B
Sat 02:03:54 AM 44.6630 -56.2670 94° East 550 633 33,000  Level FlightAware ADS-B
Sat 02:04:30 AM 44.6570 -56.1570 94° East 550 633 33,000  Level FlightAware ADS-B
Sat 02:05:06 AM 44.6520 -56.0480 94° East 550 633 33,000  Level FlightAware ADS-B
Sat 02:05:54 AM 44.6440 -55.9030 94° East 550 633 33,000  Level FlightAware ADS-B
Sat 02:06:31 AM 44.6390 -55.7910 94° East 550 633 33,000  Level FlightAware ADS-B
Sat 02:07:08 AM 44.6330 -55.6780 94° East 550 633 33,000  Level FlightAware ADS-B
Sat 02:07:56 AM 44.6260 -55.5330 94° East 550 633 33,000  Level FlightAware ADS-B
Sat 02:08:32 AM 44.6210 -55.4240 94° East 550 633 33,000  Level FlightAware ADS-B
Sat 02:09:20 AM 44.6130 -55.2780 94° East 550 633 33,000  Level FlightAware ADS-B
Sat 02:09:56 AM 44.6080 -55.1690 94° East 550 633 33,000  Level FlightAware ADS-B
Sat 02:10:44 AM 44.6010 -55.0240 94° East 550 633 33,000  Level FlightAware ADS-B
Sat 02:11:23 AM 45.0000 -54.6333 94° East 540 621 33,000  Level Moncton Center
Sat 02:12:12 AM 45.0333 -54.4833 72° East 540 621 33,000  Level Gander Center
Sat 02:13:12 AM 45.0833 -54.2833 70° East 530 610 33,000  Level Gander Center
Sat 02:14:12 AM 45.1167 -54.0667 78° East 530 610 33,000  Level Gander Center
Sat 02:15:12 AM 45.1667 -53.8667 70° East 530 610 33,000  Level Gander Center
Sat 02:16:12 AM 45.2333 -53.6833 63° Northeast 540 621 33,000  Level Gander Center
Sat 02:17:12 AM 45.2667 -53.4833 77° East 530 610 33,000  Level Gander Center
Sat 02:18:12 AM 45.3000 -53.2833 77° East 540 621 33,000  Level Gander Center
Sat 02:19:12 AM 45.3500 -53.0667 72° East 540 621 33,000  Level Gander Center
Sat 02:20:12 AM 45.4000 -52.8667 70° East 540 621 33,000  Level Gander Center
Sat 02:21:12 AM 45.4333 -52.6667 77° East 540 621 33,000  Level Gander Center
Sat 02:22:12 AM 45.4833 -52.4667 70° East 540 621 33,000  Level Gander Center
Sat 02:23:12 AM 45.5167 -52.2500 78° East 530 610 33,000  Level Gander Center
Sat 02:24:00 AM 46.0000 -50.0000 86° East 555 639 33,000  Level ETMS Enhanced Traffic Management System
Sat 02:24:12 AM 45.5667 -52.0500 70° East 540 621 33,000  Level Gander Center
Sat 02:25:12 AM 45.6000 -51.8500 86° East 540 621 33,000  Level Gander Center
Sat 02:26:12 AM 45.6500 -51.6500 70° East 540 621 33,000  Level Gander Center
Sat 02:27:12 AM 45.7000 -51.4333 72° East 540 621 33,000  Level Gander Center
Sat 02:28:12 AM 45.7333 -51.2333 77° East 540 621 33,000  Level Gander Center
Sat 02:29:12 AM 45.7833 -51.0333 70° East 550 633 33,000  Level Gander Center
Sat 02:30:12 AM 45.8167 -50.8000 78° East 540 621 33,000  Level Gander Center
Sat 02:31:12 AM 45.8500 -50.6000 76° East 540 621 33,000  Level Gander Center
Sat 02:32:12 AM 45.9000 -50.4000 70° East 530 610 33,000  Level Gander Center
Sat 02:33:12 AM 45.9333 -50.2000 76° East 530 610 33,000  Level Gander Center
Sat 02:34:12 AM 45.9667 -50.0000 76° East 530 610 33,000  Level Gander Center
Sat 02:35:12 AM 45.9833 -49.7833 84° East 530 610 33,000  Level Gander Center
Sat 02:36:12 AM 46.0000 -49.5833 83° East 540 621 33,000  Level Gander Center
Sat 02:37:12 AM 46.0167 -49.3333 84° East 550 633 33,000  Level Gander Center
Sat 02:38:12 AM 46.0167 -49.1333 90° East 560 644 33,000  Level Gander Center
Sat 02:39:12 AM 46.0333 -48.9000 84° East 550 633 33,000  Level Gander Center
Sat 02:40:12 AM 46.0167 -48.7000 97° East 560 644 33,000  Level Gander Center
Sat 02:41:12 AM 46.0333 -48.4833 84° East 560 644 33,000  Level Gander Center
Sat 02:42:12 AM 46.0333 -48.2333 90° East 560 644 33,000  Level Gander Center
Sat 02:43:12 AM 46.0500 -48.0167 84° East 560 644 33,000  Level Gander Center
Sat 02:44:12 AM 46.0500 -47.8000 90° East 560 644 33,000  Level Gander Center
Sat 02:45:12 AM 46.0500 -47.5833 90° East 560 644 33,000  Level Gander Center
Sat 02:46:26 AM 46.0667 -47.3167 85° East 550 633 33,000  Level Gander Center
Sat 02:47:26 AM 46.0667 -47.1000 90° East 550 633 33,000 Level Gander Center
Sat 02:49:00 AM 46.0729 -46.7666 88° East  Level FlightAware Approximate
Sat 02:56:00 AM 46.0889 -45.2764 89° East  Level FlightAware Approximate
Sat 02:57:00 AM 46.0896 -45.0634 90° East  Level FlightAware Approximate
Sat 02:58:00 AM 46.0899 -44.8505 90° East  Level FlightAware Approximate
Sat 02:59:00 AM 46.0898 -44.6375 90° East  Level FlightAware Approximate
Sat 03:00:00 AM 46.0893 -44.4246 90° East  Level FlightAware Approximate
Sat 03:01:00 AM 46.0884 -44.2117 90° East  Level FlightAware Approximate
Sat 03:02:00 AM 46.0872 -43.9987 90° East  Level FlightAware Approximate
Sat 03:03:00 AM 46.0855 -43.7858 91° East  Level FlightAware Approximate
Sat 03:04:00 AM 46.0834 -43.5729 91° East  Level FlightAware Approximate
Sat 03:05:00 AM 46.0810 -43.3600 91° East  Level FlightAware Approximate
Sat 03:06:00 AM 46.0781 -43.1471 91° East  Level FlightAware Approximate
Sat 03:07:00 AM 46.0749 -42.9343 91° East  Level FlightAware Approximate
Sat 03:08:00 AM 46.0712 -42.7215 91° East  Level FlightAware Approximate
Sat 03:09:00 AM 46.0672 -42.5087 91° East  Level FlightAware Approximate
Sat 03:10:00 AM 46.0635 -42.2961 91° East  Level FlightAware Approximate
Sat 03:11:00 AM 46.0596 -42.0833 91° East  Level FlightAware Approximate
Sat 03:12:00 AM 46.0552 -41.8706 92° East  Level FlightAware Approximate
Sat 03:13:00 AM 46.0505 -41.6579 92° East  Level FlightAware Approximate
Sat 03:14:00 AM 46.0454 -41.4452 92° East  Level FlightAware Approximate
Sat 03:15:00 AM 46.0398 -41.2326 92° East  Level FlightAware Approximate
Sat 03:16:00 AM 46.0339 -41.0200 92° East  Level FlightAware Approximate
Sat 03:17:00 AM 46.0276 -40.8075 92° East  Level FlightAware Approximate
Sat 03:18:00 AM 46.0209 -40.5950 93° East  Level FlightAware Approximate
Sat 03:19:00 AM 46.0138 -40.3826 93° East  Level FlightAware Approximate
Sat 03:20:00 AM 46.0063 -40.1702 93° East  Level FlightAware Approximate
Sat 03:21:00 AM 46.0018 -39.9579 87° East  Level FlightAware Approximate
Sat 03:22:00 AM 46.0104 -39.7457 87° East  Level FlightAware Approximate
Sat 03:23:00 AM 46.0186 -39.5333 87° East  Level FlightAware Approximate
Sat 03:24:00 AM 46.0264 -39.3209 87° East  Level FlightAware Approximate
Sat 03:25:00 AM 46.0338 -39.1085 87° East  Level FlightAware Approximate
Sat 03:26:00 AM 46.0409 -38.8960 87° East  Level FlightAware Approximate
Sat 03:27:00 AM 46.0475 -38.6834 87° East  Level FlightAware Approximate
Sat 03:28:00 AM 46.0538 -38.4708 87° East  Level FlightAware Approximate
Sat 03:29:00 AM 46.0596 -38.2582 88° East  Level FlightAware Approximate
Sat 03:30:00 AM 46.0651 -38.0455 88° East  Level FlightAware Approximate
Sat 03:31:00 AM 46.0702 -37.8327 88° East  Level FlightAware Approximate
Sat 03:32:00 AM 46.0748 -37.6199 88° East  Level FlightAware Approximate
Sat 03:33:00 AM 46.0791 -37.4102 88° East  Level FlightAware Approximate
Sat 03:34:00 AM 46.0829 -37.2004 88° East  Level FlightAware Approximate
Sat 03:35:00 AM 46.0863 -36.9906 89° East  Level FlightAware Approximate
Sat 03:36:00 AM 46.0894 -36.7808 89° East  Level FlightAware Approximate
Sat 03:37:00 AM 46.0921 -36.5709 89° East  Level FlightAware Approximate
Sat 03:38:00 AM 46.0944 -36.3611 89° East  Level FlightAware Approximate
Sat 03:39:00 AM 46.0963 -36.1512 89° East  Level FlightAware Approximate
Sat 03:40:00 AM 46.0979 -35.9413 89° East  Level FlightAware Approximate
Sat 03:41:00 AM 46.0990 -35.7314 89° East  Level FlightAware Approximate
Sat 03:42:00 AM 46.0998 -35.5215 90° East  Level FlightAware Approximate
Sat 03:43:00 AM 46.1001 -35.3116 90° East  Level FlightAware Approximate
Sat 03:44:00 AM 46.1001 -35.1016 90° East  Level FlightAware Approximate
Sat 03:45:00 AM 46.1002 -34.8917 90° East  Level FlightAware Approximate
Sat 03:46:00 AM 46.1001 -34.6818 90° East  Level FlightAware Approximate
Sat 03:47:00 AM 46.0998 -34.4719 90° East  Level FlightAware Approximate
Sat 03:48:00 AM 46.0990 -34.2620 90° East  Level FlightAware Approximate
Sat 03:49:00 AM 46.0978 -34.0521 90° East  Level FlightAware Approximate
Sat 03:50:00 AM 46.0963 -33.8422 91° East  Level FlightAware Approximate
Sat 03:51:00 AM 46.0943 -33.6323 91° East  Level FlightAware Approximate
Sat 03:52:00 AM 46.0920 -33.4224 91° East  Level FlightAware Approximate
Sat 03:53:00 AM 46.0893 -33.2126 91° East  Level FlightAware Approximate
Sat 03:54:00 AM 46.0863 -33.0027 91° East  Level FlightAware Approximate
Sat 03:55:00 AM 46.0828 -32.7929 91° East  Level FlightAware Approximate
Sat 03:56:00 AM 46.0789 -32.5832 91° East  Level FlightAware Approximate
Sat 03:57:00 AM 46.0747 -32.3734 92° East  Level FlightAware Approximate
Sat 03:58:00 AM 46.0701 -32.1637 92° East  Level FlightAware Approximate
Sat 03:59:00 AM 46.0651 -31.9540 92° East  Level FlightAware Approximate
Sat 04:00:00 AM 46.0597 -31.7444 92° East  Level FlightAware Approximate
Sat 04:01:00 AM 46.0539 -31.5348 92° East  Level FlightAware Approximate
Sat 04:02:00 AM 46.0478 -31.3253 92° East  Level FlightAware Approximate
Sat 04:03:00 AM 46.0413 -31.1158 92° East  Level FlightAware Approximate
Sat 04:04:00 AM 46.0344 -30.9063 93° East  Level FlightAware Approximate
Sat 04:05:00 AM 46.0271 -30.6969 93° East  Level FlightAware Approximate
Sat 04:06:00 AM 46.0194 -30.4876 93° East  Level FlightAware Approximate
Sat 04:07:00 AM 46.0113 -30.2783 93° East  Level FlightAware Approximate
Sat 04:08:00 AM 46.0029 -30.0691 93° East  Level FlightAware Approximate
Sat 04:09:00 AM 45.9920 -29.8602 95° East  Level FlightAware Approximate
Sat 04:10:00 AM 45.9797 -29.6514 95° East  Level FlightAware Approximate
Sat 04:11:00 AM 45.9670 -29.4428 95° East  Level FlightAware Approximate
Sat 04:12:00 AM 45.9540 -29.2342 95° East  Level FlightAware Approximate
Sat 04:13:00 AM 45.9406 -29.0258 95° East  Level FlightAware Approximate
Sat 04:14:00 AM 45.9268 -28.8174 95° East  Level FlightAware Approximate
Sat 04:15:00 AM 45.9126 -28.6092 96° East  Level FlightAware Approximate
Sat 04:16:00 AM 45.8981 -28.4010 96° East  Level FlightAware Approximate
Sat 04:17:00 AM 45.8832 -28.1930 96° East  Level FlightAware Approximate
Sat 04:18:00 AM 45.8679 -27.9851 96° East  Level FlightAware Approximate
Sat 04:19:00 AM 45.8522 -27.7773 96° East  Level FlightAware Approximate
Sat 04:20:00 AM 45.8361 -27.5696 96° East  Level FlightAware Approximate
Sat 04:21:00 AM 45.8197 -27.3621 96° East  Level FlightAware Approximate
Sat 04:22:00 AM 45.8029 -27.1546 97° East  Level FlightAware Approximate
Sat 04:23:00 AM 45.7857 -26.9473 97° East  Level FlightAware Approximate
Sat 04:24:00 AM 45.7681 -26.7402 97° East  Level FlightAware Approximate
Sat 04:25:00 AM 45.7502 -26.5331 97° East  Level FlightAware Approximate
Sat 04:26:00 AM 45.7319 -26.3262 97° East  Level FlightAware Approximate
Sat 04:27:00 AM 45.7132 -26.1194 97° East  Level FlightAware Approximate
Sat 04:28:00 AM 45.6941 -25.9128 97° East  Level FlightAware Approximate
Sat 04:29:00 AM 45.6747 -25.7063 98° East  Level FlightAware Approximate
Sat 04:30:00 AM 45.6549 -25.5000 98° East  Level FlightAware Approximate
Sat 04:31:00 AM 45.6348 -25.2938 98° East  Level FlightAware Approximate
Sat 04:32:00 AM 45.6142 -25.0877 98° East  Level FlightAware Approximate
Sat 04:33:00 AM 45.5933 -24.8818 98° East  Level FlightAware Approximate
Sat 04:34:00 AM 45.5720 -24.6761 98° East  Level FlightAware Approximate
Sat 04:35:00 AM 45.5504 -24.4705 98° East  Level FlightAware Approximate
Sat 04:36:00 AM 45.5284 -24.2651 99° East  Level FlightAware Approximate
Sat 04:37:00 AM 45.5060 -24.0598 99° East  Level FlightAware Approximate
Sat 04:38:00 AM 45.4832 -23.8547 99° East  Level FlightAware Approximate
Sat 04:39:00 AM 45.4601 -23.6498 99° East  Level FlightAware Approximate
Sat 04:40:00 AM 45.4366 -23.4450 99° East  Level FlightAware Approximate
Sat 04:41:00 AM 45.4127 -23.2404 99° East  Level FlightAware Approximate
Sat 04:42:00 AM 45.3884 -23.0360 100° East  Level FlightAware Approximate
Sat 04:43:00 AM 45.3638 -22.8318 100° East  Level FlightAware Approximate
Sat 04:44:00 AM 45.3388 -22.6278 100° East  Level FlightAware Approximate
Sat 04:45:00 AM 45.3136 -22.4238 100° East  Level FlightAware Approximate
Sat 04:46:00 AM 45.2893 -22.2198 100° East  Level FlightAware Approximate
Sat 04:47:00 AM 45.2646 -22.0159 100° East  Level FlightAware Approximate
Sat 04:48:00 AM 45.2396 -21.8123 100° East  Level FlightAware Approximate
Sat 04:49:00 AM 45.2142 -21.6087 100° East  Level FlightAware Approximate
Sat 04:50:00 AM 45.1885 -21.4054 100° East  Level FlightAware Approximate
Sat 04:51:00 AM 45.1624 -21.2023 100° East  Level FlightAware Approximate
Sat 04:52:00 AM 45.1359 -20.9993 100° East  Level FlightAware Approximate
Sat 04:53:00 AM 45.1091 -20.7966 101° East  Level FlightAware Approximate
Sat 04:54:00 AM 45.0819 -20.5940 101° East  Level FlightAware Approximate
Sat 04:55:00 AM 45.0544 -20.3916 101° East  Level FlightAware Approximate
Sat 04:56:00 AM 45.0265 -20.1895 101° East  Level FlightAware Approximate
Sat 04:57:00 AM 44.9977 -19.9877 105° East  Level FlightAware Approximate
Sat 04:58:00 AM 44.9600 -19.7889 105° East  Level FlightAware Approximate
Sat 04:59:00 AM 44.9220 -19.5904 105° East  Level FlightAware Approximate
Sat 05:00:00 AM 44.8837 -19.3921 105° East  Level FlightAware Approximate
Sat 05:01:00 AM 44.8450 -19.1942 105° East  Level FlightAware Approximate
Sat 05:02:00 AM 44.8059 -18.9965 105° East  Level FlightAware Approximate
Sat 05:03:00 AM 44.7683 -18.7983 105° East  Level FlightAware Approximate
Sat 05:04:00 AM 44.7307 -18.6003 105° East  Level FlightAware Approximate
Sat 05:05:00 AM 44.6927 -18.4026 105° East  Level FlightAware Approximate
Sat 05:06:00 AM 44.6544 -18.2051 105° East  Level FlightAware Approximate
Sat 05:07:00 AM 44.6157 -18.0079 105° East  Level FlightAware Approximate
Sat 05:08:00 AM 44.5767 -17.8110 105° East  Level FlightAware Approximate
Sat 05:09:00 AM 44.5374 -17.6143 106° East  Level FlightAware Approximate
Sat 05:10:00 AM 44.4977 -17.4179 106° East  Level FlightAware Approximate
Sat 05:11:00 AM 44.4577 -17.2218 106° East  Level FlightAware Approximate
Sat 05:12:00 AM 44.4173 -17.0259 106° East  Level FlightAware Approximate
Sat 05:13:00 AM 44.3767 -16.8303 106° East  Level FlightAware Approximate
Sat 05:14:00 AM 44.3357 -16.6350 106° East  Level FlightAware Approximate
Sat 05:15:00 AM 44.2943 -16.4399 106° East  Level FlightAware Approximate
Sat 05:16:00 AM 44.2526 -16.2451 107° East  Level FlightAware Approximate
Sat 05:17:00 AM 44.2106 -16.0506 107° East  Level FlightAware Approximate
Sat 05:18:00 AM 44.1683 -15.8564 107° East  Level FlightAware Approximate
Sat 05:19:00 AM 44.1256 -15.6625 107° East  Level FlightAware Approximate
Sat 05:20:00 AM 44.0826 -15.4688 107° East  Level FlightAware Approximate
Sat 05:21:00 AM 44.0393 -15.2754 107° East  Level FlightAware Approximate
Sat 05:22:00 AM 43.9957 -15.0823 107° East  Level FlightAware Approximate
Sat 05:23:00 AM 43.9517 -14.8895 108° East  Level FlightAware Approximate
Sat 05:24:00 AM 43.9074 -14.6970 108° East  Level FlightAware Approximate
Sat 05:25:00 AM 43.8628 -14.5048 108° East  Level FlightAware Approximate
Sat 05:25:34 AM 43.5570 -13.2290 108° East 501 577 34,000  Level FlightAware ADS-B
Sat 05:26:00 AM 43.8178 -14.3128 108° East  Level FlightAware Approximate
Sat 05:26:10 AM 43.5300 -13.1200 109° East 501 577 34,000  Level FlightAware ADS-B
Sat 05:27:01 AM 43.4990 -12.9890 108° East 501 577 34,000  Level FlightAware ADS-B
Sat 05:27:37 AM 43.4770 -12.8960 108° East 501 577 34,000  Level FlightAware ADS-B
Sat 05:28:25 AM 43.4470 -12.7720 108° East 501 577 34,000  Level FlightAware ADS-B
Sat 05:29:13 AM 43.4510 -12.5320 89° East 504 580 34,000  Level FlightAware ADS-B
Sat 05:29:57 AM 43.4350 -12.3910 99° East 501 577 34,000  Level FlightAware ADS-B
Sat 05:30:40 AM 43.4200 -12.2520 98° East 500 575 34,000  Level FlightAware ADS-B
Sat 05:31:21 AM 43.4050 -12.1240 99° East 500 575 34,000 135 Level FlightAware ADS-B
Sat 05:32:09 AM 43.3890 -11.9850 99° East 504 580 34,200 944 Climbing FlightAware ADS-B
Sat 05:32:50 AM 43.3730 -11.8410 99° East 499 574 35,400 1,317 Climbing FlightAware ADS-B
Sat 05:33:31 AM 43.3580 -11.7100 99° East 498 573 36,000 444 Climbing FlightAware ADS-B
Sat 05:34:11 AM 43.3460 -11.6100 99° East 496 571 36,000  Level FlightAware ADS-B
Sat 05:34:55 AM 43.3300 -11.4710 99° East 493 567 36,000  Level FlightAware ADS-B
Sat 05:35:32 AM 43.3140 -11.3350 99° East 490 564 36,000  Level FlightAware ADS-B
Sat 05:36:16 AM 43.2980 -11.2040 99° East 489 563 36,000  Level FlightAware ADS-B
Sat 05:36:51 AM 43.2860 -11.1000 99° East 488 562 36,000  Level FlightAware ADS-B
Sat 05:37:46 AM 43.2650 -10.9320 100° East 488 562 36,000  Level FlightAware ADS-B
Sat 05:38:33 AM 43.2480 -10.7970 100° East 490 564 36,000  Level FlightAware ADS-B
Sat 05:39:14 AM 43.2310 -10.6620 100° East 492 566 36,000  Level FlightAware ADS-B
Sat 05:39:59 AM 43.2140 -10.5210 99° East 493 567 36,000  Level FlightAware ADS-B
Sat 05:40:38 AM 43.1990 -10.4100 100° East 494 568 36,000  Level FlightAware ADS-B
Sat 05:41:20 AM 43.1810 -10.2680 100° East 496 571 36,000  Level FlightAware ADS-B
Sat 05:41:55 AM 43.1680 -10.1630 100° East 496 571 36,000  Level FlightAware ADS-B
Sat 05:42:41 AM 43.1490 -10.0210 100° East 497 572 36,000  Level FlightAware ADS-B
Sat 05:43:17 AM 43.1340 -9.9060 100° East 499 574 36,000  Level FlightAware ADS-B
Sat 05:43:54 AM 43.1180 -9.7910 101° East 500 575 36,000  Level FlightAware ADS-B
Sat 05:44:36 AM 43.1020 -9.6730 100° East 500 575 36,000  Level FlightAware ADS-B
Sat 05:45:14 AM 43.0850 -9.5420 100° East 501 577 36,000  Level FlightAware ADS-B
Sat 05:45:59 AM 43.0660 -9.4030 101° East 501 577 36,000  Level FlightAware ADS-B
Sat 05:46:43 AM 43.0500 -9.2870 101° East 501 577 36,000  Level FlightAware ADS-B
Sat 05:47:18 AM 43.0320 -9.1600 101° East 502 578 36,000  Level FlightAware ADS-B
Sat 05:48:08 AM 43.0100 -9.0010 101° East 503 579 36,000  Level FlightAware ADS-B
Sat 05:48:42 AM 42.9950 -8.8950 101° East 503 579 36,000  Level FlightAware ADS-B
Sat 05:49:26 AM 42.9750 -8.7580 101° East 503 579 36,000  Level FlightAware ADS-B
Sat 05:50:05 AM 42.9580 -8.6400 101° East 503 579 36,000  Level FlightAware ADS-B
Sat 05:50:42 AM 42.9410 -8.5220 101° East 503 579 36,000  Level FlightAware ADS-B
Sat 05:51:25 AM 42.9240 -8.3900 100° East 503 579 36,000  Level FlightAware ADS-B
Sat 05:52:05 AM 42.9150 -8.2610 95° East 504 580 36,000  Level FlightAware ADS-B
Sat 05:52:47 AM 42.9080 -8.1310 94° East 505 581 36,000  Level FlightAware ADS-B
Sat 05:53:25 AM 42.9020 -8.0110 94° East 505 581 36,000  Level FlightAware ADS-B
Sat 05:54:11 AM 42.8920 -7.8620 95° East 506 582 36,000  Level FlightAware ADS-B
Sat 05:54:56 AM 42.8820 -7.7190 95° East 506 582 36,000  Level FlightAware ADS-B
Sat 05:55:28 AM 42.8750 -7.6180 95° East 506 582 36,000  Level FlightAware ADS-B
Sat 05:56:10 AM 42.8660 -7.4850 95° East 506 582 36,000  Level FlightAware ADS-B
Sat 05:56:49 AM 42.8570 -7.3640 96° East 506 582 36,000  Level FlightAware ADS-B
Sat 05:57:34 AM 42.8470 -7.2210 95° East 507 583 36,000  Level FlightAware ADS-B
Sat 05:58:14 AM 42.8380 -7.0940 95° East 507 583 36,000  Level FlightAware ADS-B
Sat 05:58:57 AM 42.8290 -6.9700 96° East 507 583 36,000  Level FlightAware ADS-B
Sat 05:59:37 AM 42.8190 -6.8310 96° East 507 583 36,000  Level FlightAware ADS-B
Sat 06:00:21 AM 42.8090 -6.7030 96° East 508 585 36,000  Level FlightAware ADS-B
Sat 06:01:04 AM 42.7980 -6.5610 96° East 508 585 36,000  Level FlightAware ADS-B
Sat 06:01:47 AM 42.7870 -6.4180 96° East 508 585 36,000  Level FlightAware ADS-B
Sat 06:02:27 AM 42.7770 -6.2910 96° East 509 586 36,000  Level FlightAware ADS-B
Sat 06:03:08 AM 42.7670 -6.1640 96° East 509 586 36,000  Level FlightAware ADS-B
Sat 06:03:53 AM 42.7550 -6.0170 96° East 511 588 36,000  Level FlightAware ADS-B
Sat 06:04:27 AM 42.7460 -5.9060 96° East 511 588 36,000  Level FlightAware ADS-B
Sat 06:05:12 AM 42.7340 -5.7620 96° East 512 589 36,000  Level FlightAware ADS-B
Sat 06:05:50 AM 42.7250 -5.6630 97° East 513 590 36,000  Level FlightAware ADS-B
Sat 06:06:34 AM 42.7140 -5.5250 96° East 514 592 36,000  Level FlightAware ADS-B
Sat 06:07:17 AM 42.7030 -5.3970 97° East 515 593 36,000  Level FlightAware ADS-B
Sat 06:08:10 AM 42.6880 -5.2370 97° East 515 593 36,000  Level FlightAware ADS-B
Sat 06:08:47 AM 42.6740 -5.0800 97° East 517 595 36,000  Level FlightAware ADS-B
Sat 06:09:34 AM 42.6600 -4.9250 97° East 517 595 36,000  Level FlightAware ADS-B
Sat 06:10:19 AM 42.6470 -4.7830 97° East 519 597 36,000  Level FlightAware ADS-B
Sat 06:10:59 AM 42.6350 -4.6570 97° East 520 598 36,000  Level FlightAware ADS-B
Sat 06:11:42 AM 42.6220 -4.5220 97° East 520 598 36,000  Level FlightAware ADS-B
Sat 06:12:55 AM 42.6050 -4.3330 97° East 521 600 36,000  Level FlightAware ADS-B
Sat 06:13:33 AM 42.5900 -4.1940 98° East 523 602 36,000  Level FlightAware ADS-B
Sat 06:14:11 AM 42.5750 -4.0340 97° East 524 603 36,000  Level FlightAware ADS-B
Sat 06:14:54 AM 42.5600 -3.8880 98° East 526 605 36,000  Level FlightAware ADS-B
Sat 06:15:39 AM 42.5450 -3.7440 98° East 526 605 36,000  Level FlightAware ADS-B
Sat 06:16:14 AM 42.5340 -3.6300 97° East 528 608 36,000  Level FlightAware ADS-B
Sat 06:16:54 AM 42.5190 -3.4950 99° East 529 609 36,000  Level FlightAware ADS-B
Sat 06:17:39 AM 42.5040 -3.3510 98° East 529 609 36,000  Level FlightAware ADS-B
Sat 06:18:15 AM 42.4920 -3.2330 98° East 529 609 36,000  Level FlightAware ADS-B
Sat 06:18:51 AM 42.4790 -3.1180 99° East 530 610 36,000  Level FlightAware ADS-B
Sat 06:19:46 AM 42.4550 -2.9800 103° East 529 609 36,000  Level FlightAware ADS-B
Sat 06:20:41 AM 42.4200 -2.8010 105° East 530 610 36,000  Level FlightAware ADS-B
Sat 06:21:24 AM 42.3860 -2.6210 104° East 531 611 36,000  Level FlightAware ADS-B
Sat 06:22:09 AM 42.3600 -2.4830 104° East 531 611 36,000  Level FlightAware ADS-B
Sat 06:22:39 AM 42.3410 -2.3800 104° East 530 610 36,000  Level FlightAware ADS-B
Sat 06:23:17 AM 42.3190 -2.2580 104° East 532 612 36,000  Level FlightAware ADS-B
Sat 06:23:55 AM 42.2960 -2.1380 104° East 532 612 36,000  Level FlightAware ADS-B
Sat 06:24:37 AM 42.2690 -2.0000 105° East 532 612 36,000  Level FlightAware ADS-B
Sat 06:25:42 AM 42.2340 -1.8350 106° East 531 611 36,000  Level FlightAware ADS-B
Sat 06:26:26 AM 42.2010 -1.6790 106° East 531 611 36,000  Level FlightAware ADS-B
Sat 06:26:59 AM 42.1730 -1.5520 107° East 531 611 36,000  Level FlightAware ADS-B
Sat 06:27:39 AM 42.1440 -1.4190 106° East 531 611 36,000  Level FlightAware ADS-B
Sat 06:28:23 AM 42.1140 -1.2830 107° East 531 611 36,000  Level FlightAware ADS-B
Sat 06:29:01 AM 42.0870 -1.1620 107° East 531 611 36,000  Level FlightAware ADS-B
Sat 06:29:47 AM 42.0550 -1.0170 107° East 530 610 36,000  Level FlightAware ADS-B
Sat 06:30:27 AM 42.0260 -0.8870 107° East 530 610 36,000  Level FlightAware ADS-B
Sat 06:31:17 AM 41.9910 -0.7330 107° East 529 609 36,000  Level FlightAware ADS-B
Sat 06:32:01 AM 41.9590 -0.5910 107° East 529 609 36,000  Level FlightAware ADS-B
Sat 06:32:40 AM 41.9330 -0.4780 107° East 530 610 36,000  Level FlightAware ADS-B
Sat 06:33:25 AM 41.9040 -0.3530 107° East 529 609 36,000  Level FlightAware ADS-B
Sat 06:34:05 AM 41.8720 -0.2090 107° East 528 608 36,000  Level FlightAware ADS-B
Sat 06:34:46 AM 41.8450 -0.0930 107° East 528 608 36,000  Level FlightAware ADS-B
Sat 06:35:27 AM 41.8180 0.0220 107° East 528 608 36,000  Level FlightAware ADS-B
Sat 06:36:12 AM 41.7780 0.1910 108° East 529 609 36,000  Level FlightAware ADS-B
Sat 06:36:54 AM 41.7480 0.3180 108° East 528 608 36,000  Level FlightAware ADS-B
Sat 06:37:38 AM 41.7140 0.4620 108° East 529 609 36,000  Level FlightAware ADS-B
Sat 06:38:16 AM 41.6860 0.5800 108° East 530 610 36,000  Level FlightAware ADS-B
Sat 06:38:58 AM 41.6570 0.6990 108° East 530 610 36,000  Level FlightAware ADS-B
Sat 06:39:43 AM 41.6200 0.8410 109° East 531 611 36,000  Level FlightAware ADS-B
Sat 06:40:39 AM 41.5830 0.9800 110° East 532 612 36,000  Level FlightAware ADS-B
Sat 06:41:20 AM 41.5380 1.1470 110° East 531 611 36,000  Level FlightAware ADS-B
Sat 06:42:00 AM 41.5110 1.2660 107° East 533 613 36,000  Level FlightAware ADS-B
Sat 06:42:40 AM 41.4820 1.3950 107° East 532 612 36,000  Level FlightAware ADS-B
Sat 06:43:16 AM 41.4550 1.5110 107° East 532 612 36,000  Level FlightAware ADS-B
Sat 06:43:58 AM 41.4250 1.6390 107° East 532 612 36,000  Level FlightAware ADS-B
Sat 06:44:38 AM 41.3980 1.7550 107° East 531 611 36,000  Level FlightAware ADS-B
Sat 06:45:17 AM 41.3740 1.8470 109° East 531 611 36,000  Level FlightAware ADS-B
Sat 06:45:52 AM 41.3460 1.9560 109° East 532 612 36,000  Level FlightAware ADS-B
Sat 06:46:32 AM 41.3140 2.0830 109° East 532 612 36,000  Level FlightAware ADS-B
Sat 06:47:17 AM 41.2810 2.2570 104° East 535 616 36,000  Level FlightAware ADS-B
Sat 06:47:55 AM 41.2610 2.3830 102° East 535 616 36,000  Level FlightAware ADS-B
Sat 06:48:39 AM 41.2380 2.5240 102° East 534 615 36,000  Level FlightAware ADS-B
Sat 06:49:18 AM 41.2180 2.6490 102° East 535 616 36,000  Level FlightAware ADS-B
Sat 06:49:58 AM 41.1960 2.7770 103° East 535 616 36,000  Level FlightAware ADS-B
Sat 06:50:43 AM 41.1750 2.9010 103° East 535 616 36,000  Level FlightAware ADS-B
Sat 06:51:25 AM 41.1500 3.0420 103° East 535 616 36,000  Level FlightAware ADS-B
Sat 06:52:05 AM 41.1250 3.1890 103° East 535 616 36,000  Level FlightAware ADS-B
Sat 06:52:43 AM 41.1030 3.3110 103° East 534 615 36,000  Level FlightAware ADS-B
Sat 06:53:22 AM 41.0820 3.4320 103° East 535 616 36,000  Level FlightAware ADS-B
Sat 06:54:07 AM 41.0560 3.5760 103° East 536 617 36,000  Level FlightAware ADS-B
Sat 06:54:47 AM 41.0400 3.6680 103° East 536 617 36,000  Level FlightAware ADS-B
Sat 06:55:31 AM 41.0130 3.8220 103° East 536 617 36,000  Level FlightAware ADS-B
Sat 06:56:10 AM 40.9870 3.9620 104° East 535 616 36,000  Level FlightAware ADS-B
Sat 06:56:51 AM 40.9630 4.0950 103° East 534 615 36,000  Level FlightAware ADS-B
Sat 06:57:36 AM 40.9360 4.2410 104° East 534 615 36,000  Level FlightAware ADS-B
Sat 06:58:16 AM 40.9130 4.3650 104° East 534 615 36,000  Level FlightAware ADS-B
Sat 06:59:16 AM 40.8790 4.5510 104° East 532 612 36,000  Level FlightAware ADS-B
Sat 06:59:51 AM 40.8590 4.6650 103° East 533 613 36,000  Level FlightAware ADS-B
Sat 07:01:07 AM 40.8340 4.8770 99° East 532 612 36,000  Level FlightAware ADS-B
Sat 07:01:43 AM 40.8240 4.9720 98° East 530 610 36,000  Level FlightAware ADS-B
Sat 07:02:23 AM 40.8140 5.0820 97° East 530 610 36,000  Level FlightAware ADS-B
Sat 07:03:11 AM 40.8020 5.2130 97° East 530 610 36,000  Level FlightAware ADS-B
Sat 07:04:09 AM 40.7870 5.3710 97° East 530 610 36,000  Level FlightAware ADS-B
Sat 07:04:45 AM 40.7780 5.4700 97° East 530 610 36,000  Level FlightAware ADS-B
Sat 07:05:21 AM 40.7690 5.5680 97° East 530 610 36,000  Level FlightAware ADS-B
Sat 07:06:09 AM 40.7570 5.6990 97° East 530 610 36,000  Level FlightAware ADS-B
Sat 07:06:39 AM 40.7280 5.9660 98° East 534 615 36,000  Level FlightAware ADS-B
Sat 07:07:18 AM 40.7200 6.0820 95° East 536 617 36,000  Level FlightAware ADS-B
Sat 07:08:13 AM 40.7170 6.2420 91° East 536 617 36,000  Level FlightAware ADS-B
Sat 07:09:02 AM 40.7120 6.4020 92° East 535 616 36,000  Level FlightAware ADS-B
Sat 07:09:43 AM 40.7060 6.5710 93° East 534 615 36,000  Level FlightAware ADS-B
Sat 07:10:26 AM 40.7000 6.7140 93° East 534 615 36,000  Level FlightAware ADS-B
Sat 07:11:07 AM 40.6940 6.8470 93° East 535 616 36,000  Level FlightAware ADS-B
Sat 07:11:51 AM 40.6880 6.9930 93° East 535 616 36,000  Level FlightAware ADS-B
Sat 07:12:31 AM 40.6830 7.1200 93° East 535 616 36,000  Level FlightAware ADS-B
Sat 07:13:11 AM 40.6770 7.2500 93° East 536 617 36,000 565 Level FlightAware ADS-B
Sat 07:13:56 AM 40.6700 7.3970 94° East 536 617 36,800 732 Climbing FlightAware ADS-B
Sat 07:14:33 AM 40.6650 7.5140 93° East 536 617 37,000 148 Climbing FlightAware ADS-B
Sat 07:15:17 AM 40.6590 7.6250 94° East 535 616 37,000  Level FlightAware ADS-B
Sat 07:15:58 AM 40.6490 7.7570 96° East 530 610 37,000  Level FlightAware ADS-B
Sat 07:16:42 AM 40.6260 7.8920 103° East 530 610 37,000  Level FlightAware ADS-B
Sat 07:17:26 AM 40.5970 8.0650 102° East 528 608 37,000  Level FlightAware ADS-B
Sat 07:18:04 AM 40.5770 8.1910 102° East 530 610 37,000  Level FlightAware ADS-B
Sat 07:18:39 AM 40.5590 8.3020 102° East 531 611 37,000  Level FlightAware ADS-B
Sat 07:19:26 AM 40.5350 8.4440 102° East 530 610 37,000  Level FlightAware ADS-B
Sat 07:20:02 AM 40.5180 8.5380 103° East 531 611 37,000  Level FlightAware ADS-B
Sat 07:20:40 AM 40.4990 8.6420 103° East 530 610 37,000  Level FlightAware ADS-B
Sat 07:21:20 AM 40.4760 8.7710 103° East 530 610 37,000  Level FlightAware ADS-B
Sat 07:22:01 AM 40.4460 8.9360 103° East 529 609 37,000  Level FlightAware ADS-B
Sat 07:22:45 AM 40.4220 9.0710 103° East 527 606 37,000  Level FlightAware ADS-B
Sat 07:23:30 AM 40.3960 9.2140 103° East 527 606 37,000  Level FlightAware ADS-B
Sat 07:24:10 AM 40.3730 9.3390 104° East 527 606 37,000  Level FlightAware ADS-B
Sat 07:24:50 AM 40.3500 9.4640 104° East 529 609 37,000  Level FlightAware ADS-B
Sat 07:25:35 AM 40.3240 9.6040 104° East 528 608 37,000  Level FlightAware ADS-B
Sat 07:26:15 AM 40.3000 9.7280 104° East 530 610 37,000  Level FlightAware ADS-B
Sat 07:27:00 AM 40.2760 9.8560 104° East 530 610 37,000  Level FlightAware ADS-B
Sat 07:27:40 AM 40.2500 9.9940 104° East 531 611 37,000  Level FlightAware ADS-B
Sat 07:28:26 AM 40.2230 10.1340 104° East 531 611 37,000  Level FlightAware ADS-B
Sat 07:28:56 AM 40.2050 10.2270 104° East 532 612 37,000  Level FlightAware ADS-B
Sat 07:29:40 AM 40.1790 10.3610 104° East 532 612 37,000  Level FlightAware ADS-B
Sat 07:30:23 AM 40.1530 10.4950 104° East 533 613 37,000  Level FlightAware ADS-B
Sat 07:31:07 AM 40.1330 10.5980 104° East 532 612 37,000  Level FlightAware ADS-B
Sat 07:32:01 AM 40.0990 10.7690 105° East 532 612 37,000  Level FlightAware ADS-B
Sat 07:32:31 AM 40.0780 10.8710 105° East 532 612 37,000  Level FlightAware ADS-B
Sat 07:33:11 AM 40.0550 10.9960 103° East 531 611 37,000  Level FlightAware ADS-B
Sat 07:33:56 AM 40.0300 11.1690 101° East 531 611 37,000  Level FlightAware ADS-B
Sat 07:34:28 AM 40.0150 11.2660 101° East 531 611 37,000  Level FlightAware ADS-B
Sat 07:35:10 AM 39.9940 11.4010 101° East 531 611 37,000  Level FlightAware ADS-B
Sat 07:35:55 AM 39.9740 11.5300 101° East 532 612 37,000  Level FlightAware ADS-B
Sat 07:36:37 AM 39.9560 11.6530 101° East 532 612 37,000  Level FlightAware ADS-B
Sat 07:37:17 AM 39.9400 11.7590 101° East 532 612 37,000  Level FlightAware ADS-B
Sat 07:38:01 AM 39.9130 11.9350 101° East 532 612 37,000  Level FlightAware ADS-B
Sat 07:38:42 AM 39.8930 12.0640 101° East 532 612 37,000  Level FlightAware ADS-B
Sat 07:39:20 AM 39.8740 12.1860 101° East 533 613 37,000  Level FlightAware ADS-B
Sat 07:39:58 AM 39.8550 12.3050 102° East 533 613 37,000  Level FlightAware ADS-B
Sat 07:40:38 AM 39.8350 12.4310 102° East 535 616 37,000  Level FlightAware ADS-B
Sat 07:41:19 AM 39.8150 12.5570 102° East 534 615 37,000  Level FlightAware ADS-B
Sat 07:41:54 AM 39.7980 12.6640 102° East 534 615 37,000  Level FlightAware ADS-B
Sat 07:42:37 AM 39.7780 12.7890 102° East 534 615 37,000  Level FlightAware ADS-B
Sat 07:43:15 AM 39.7590 12.9050 102° East 535 616 37,000  Level FlightAware ADS-B
Sat 07:44:03 AM 39.7380 13.0340 102° East 535 616 37,000  Level FlightAware ADS-B
Sat 07:44:44 AM 39.7150 13.1760 102° East 535 616 37,000  Level FlightAware ADS-B
Sat 07:45:22 AM 39.6970 13.2820 102° East 535 616 37,000  Level FlightAware ADS-B
Sat 07:46:01 AM 39.6700 13.4450 102° East 536 617 37,000  Level FlightAware ADS-B
Sat 07:46:39 AM 39.6490 13.5610 103° East 536 617 37,000  Level FlightAware ADS-B
Sat 07:47:19 AM 39.6260 13.6890 103° East 536 617 37,000  Level FlightAware ADS-B
Sat 07:47:59 AM 39.6030 13.8140 103° East 536 617 37,000  Level FlightAware ADS-B
Sat 07:48:40 AM 39.5820 13.9270 104° East 537 618 37,000  Level FlightAware ADS-B
Sat 07:49:54 AM 39.5440 14.1300 104° East 538 619 37,000  Level FlightAware ADS-B
Sat 07:50:39 AM 39.5180 14.2730 103° East 539 620 37,000  Level FlightAware ADS-B
Sat 07:51:11 AM 39.4910 14.4150 104° East 539 620 37,000  Level FlightAware ADS-B
Sat 07:51:53 AM 39.4660 14.5460 104° East 539 620 37,000  Level FlightAware ADS-B
Sat 07:52:27 AM 39.4480 14.6370 104° East 539 620 37,000  Level FlightAware ADS-B
Sat 07:53:17 AM 39.4160 14.8030 104° East 539 620 37,000  Level FlightAware ADS-B
Sat 07:53:52 AM 39.4010 14.8810 104° East 539 620 37,000  Level FlightAware ADS-B
Sat 07:54:52 AM 39.3660 15.0580 104° East 539 620 37,000  Level FlightAware ADS-B
Sat 07:55:43 AM 39.3260 15.2610 104° East 539 620 37,000  Level FlightAware ADS-B
Sat 07:56:41 AM 39.2900 15.4450 104° East 540 621 37,000  Level FlightAware ADS-B
Sat 07:57:17 AM 39.2680 15.5550 104° East 541 623 37,000  Level FlightAware ADS-B
Sat 07:57:54 AM 39.2520 15.6360 104° East 542 624 37,000  Level FlightAware ADS-B
Sat 07:58:39 AM 39.2240 15.7700 105° East 543 625 37,000  Level FlightAware ADS-B
Sat 07:59:12 AM 39.2040 15.8710 104° East 543 625 37,000  Level FlightAware ADS-B
Sat 08:00:01 AM 39.1660 16.0710 104° East 541 623 37,000  Level FlightAware ADS-B
Sat 08:00:43 AM 39.1490 16.2020 99° East 541 623 37,000  Level FlightAware ADS-B
Sat 08:01:23 AM 39.1330 16.3290 99° East 541 623 37,000  Level FlightAware ADS-B
Sat 08:02:09 AM 39.1120 16.4750 100° East 543 625 37,000  Level FlightAware ADS-B
Sat 08:02:41 AM 39.0980 16.5770 100° East 544 626 37,000  Level FlightAware ADS-B
Sat 08:03:19 AM 39.0820 16.6950 100° East 543 625 37,000  Level FlightAware ADS-B
Sat 08:04:07 AM 39.0650 16.8120 101° East 544 626 37,000  Level FlightAware ADS-B
Sat 08:04:42 AM 39.0500 16.9240 100° East 543 625 37,000 409 Level FlightAware ADS-B
Sat 08:05:35 AM 39.0170 17.1190 102° East 546 628 37,600 1,175 Climbing FlightAware ADS-B
Sat 08:06:19 AM 38.9630 17.2530 117° Southeast 536 617 38,900 955 Climbing FlightAware ADS-B
Sat 08:07:03 AM 38.9090 17.3790 119° Southeast 534 615 39,000 71 Climbing FlightAware ADS-B
Sat 08:07:43 AM 38.8640 17.4910 117° Southeast 530 610 39,000  Level FlightAware ADS-B
Sat 08:08:27 AM 38.8240 17.6180 112° Southeast 527 606 39,000  Level FlightAware ADS-B
Sat 08:09:07 AM 38.7910 17.7360 110° East 526 605 39,000  Level FlightAware ADS-B
Sat 08:09:40 AM 38.7680 17.8170 110° East 524 603 39,000  Level FlightAware ADS-B
Sat 08:10:23 AM 38.7330 17.9430 110° East 520 598 39,000  Level FlightAware ADS-B
Sat 08:11:05 AM 38.6960 18.0780 109° East 516 594 39,000  Level FlightAware ADS-B
Sat 08:11:41 AM 38.6670 18.1820 110° East 514 592 39,000  Level FlightAware ADS-B
Sat 08:12:23 AM 38.6330 18.3020 110° East 512 589 39,000  Level FlightAware ADS-B
Sat 08:13:07 AM 38.5980 18.4270 110° East 513 590 39,000  Level FlightAware ADS-B
Sat 08:13:47 AM 38.5690 18.5300 110° East 513 590 39,000  Level FlightAware ADS-B
Sat 08:14:55 AM 38.5210 18.7000 110° East 512 589 39,000  Level FlightAware ADS-B
Sat 08:15:37 AM 38.4950 18.7880 111° Southeast 512 589 39,000  Level FlightAware ADS-B
Sat 08:16:15 AM 38.4570 18.9220 110° East 512 589 39,000  Level FlightAware ADS-B
Sat 08:17:06 AM 38.4220 19.0450 110° East 512 589 39,000  Level FlightAware ADS-B
Sat 08:17:42 AM 38.3970 19.1320 110° East 512 589 39,000  Level FlightAware ADS-B
Sat 08:18:20 AM 38.3550 19.2760 110° East 514 592 39,000  Level FlightAware ADS-B
Sat 08:19:08 AM 38.3120 19.4230 110° East 515 593 39,000  Level FlightAware ADS-B
Sat 08:19:52 AM 38.2870 19.5080 111° Southeast 516 594 39,000  Level FlightAware ADS-B
Sat 08:20:28 AM 38.2560 19.6140 110° East 516 594 39,000  Level FlightAware ADS-B
Sat 08:21:15 AM 38.2170 19.7440 111° Southeast 519 597 39,000  Level FlightAware ADS-B
Sat 08:21:57 AM 38.1730 19.8960 110° East 519 597 39,000  Level FlightAware ADS-B
Sat 08:23:03 AM 38.1060 20.1180 111° Southeast 520 598 39,000  Level FlightAware ADS-B
Sat 08:23:43 AM 38.0720 20.2320 111° Southeast 522 601 39,000  Level FlightAware ADS-B
Sat 08:24:17 AM 38.0460 20.3220 110° East 522 601 39,000  Level FlightAware ADS-B
Sat 08:25:00 AM 38.0040 20.4560 112° Southeast 523 602 39,000  Level FlightAware ADS-B
Sat 08:25:39 AM 37.9740 20.5530 111° Southeast 523 602 39,000  Level FlightAware ADS-B
Sat 08:26:37 AM 37.9280 20.7040 111° Southeast 524 603 39,000  Level FlightAware ADS-B
Sat 08:27:47 AM 37.8700 20.8960 111° Southeast 524 603 39,000  Level FlightAware ADS-B
Sat 08:28:31 AM 37.8240 21.0420 112° Southeast 526 605 39,000  Level FlightAware ADS-B
Sat 08:29:11 AM 37.7840 21.1700 112° Southeast 524 603 39,000  Level FlightAware ADS-B
Sat 08:29:53 AM 37.7470 21.2890 111° Southeast 522 601 39,000  Level FlightAware ADS-B
Sat 08:30:35 AM 37.7100 21.4080 111° Southeast 520 598 39,000  Level FlightAware ADS-B
Sat 08:31:16 AM 37.6740 21.5230 112° Southeast 518 596 39,000  Level FlightAware ADS-B
Sat 08:31:58 AM 37.6480 21.6050 112° Southeast 516 594 39,000  Level FlightAware ADS-B
Sat 08:32:44 AM 37.6060 21.7360 112° Southeast 512 589 39,000  Level FlightAware ADS-B
Sat 08:33:23 AM 37.5720 21.8430 112° Southeast 509 586 39,000  Level FlightAware ADS-B
Sat 08:34:01 AM 37.5290 21.9770 112° Southeast 506 582 39,000  Level FlightAware ADS-B
Sat 08:34:49 AM 37.4850 22.1140 112° Southeast 504 580 39,000  Level FlightAware ADS-B
Sat 08:35:27 AM 37.4530 22.2140 112° Southeast 502 578 39,000  Level FlightAware ADS-B
Sat 08:36:10 AM 37.4150 22.3300 112° Southeast 501 577 39,000  Level FlightAware ADS-B
Sat 08:36:50 AM 37.3790 22.4400 112° Southeast 501 577 39,000  Level FlightAware ADS-B
Sat 08:37:38 AM 37.3390 22.5670 112° Southeast 502 578 39,000  Level FlightAware ADS-B
Sat 08:38:16 AM 37.3040 22.6720 113° Southeast 502 578 39,000  Level FlightAware ADS-B
Sat 08:39:01 AM 37.2760 22.7580 112° Southeast 503 579 39,000  Level FlightAware ADS-B
Sat 08:39:37 AM 37.2430 22.8560 113° Southeast 504 580 39,000  Level FlightAware ADS-B
Sat 08:40:17 AM 37.2090 22.9580 113° Southeast 504 580 39,000  Level FlightAware ADS-B
Sat 08:41:07 AM 37.1620 23.0990 113° Southeast 505 581 39,000  Level FlightAware ADS-B
Sat 08:41:42 AM 37.1190 23.2280 113° Southeast 506 582 39,000  Level FlightAware ADS-B
Sat 08:42:24 AM 37.0820 23.3390 113° Southeast 506 582 39,000  Level FlightAware ADS-B
Sat 08:43:14 AM 37.0360 23.4760 113° Southeast 505 581 39,000  Level FlightAware ADS-B
Sat 08:43:54 AM 36.9990 23.5840 113° Southeast 506 582 39,000  Level FlightAware ADS-B
Sat 08:44:34 AM 36.9660 23.6810 113° Southeast 507 583 39,000  Level FlightAware ADS-B
Sat 08:45:19 AM 36.9340 23.7780 112° Southeast 508 585 39,000  Level FlightAware ADS-B
Sat 08:45:56 AM 36.9000 23.8760 113° Southeast 507 583 39,000  Level FlightAware ADS-B
Sat 08:46:43 AM 36.8570 24.0020 113° Southeast 504 580 39,000  Level FlightAware ADS-B
Sat 08:47:30 AM 36.8030 24.1590 113° Southeast 503 579 39,000  Level FlightAware ADS-B
Sat 08:48:15 AM 36.7610 24.2790 114° Southeast 501 577 39,000  Level FlightAware ADS-B
Sat 08:48:53 AM 36.7270 24.3770 113° Southeast 502 578 39,000  Level FlightAware ADS-B
Sat 08:49:37 AM 36.6920 24.4770 114° Southeast 501 577 39,000  Level FlightAware ADS-B
Sat 08:50:36 AM 36.6380 24.6330 113° Southeast 503 579 39,000  Level FlightAware ADS-B
Sat 08:51:13 AM 36.5940 24.7560 114° Southeast 504 580 39,000  Level FlightAware ADS-B
Sat 08:51:58 AM 36.5530 24.8730 114° Southeast 506 582 39,000  Level FlightAware ADS-B
Sat 08:52:38 AM 36.5150 24.9790 114° Southeast 506 582 39,000  Level FlightAware ADS-B
Sat 08:53:14 AM 36.4800 25.0780 114° Southeast 506 582 39,000  Level FlightAware ADS-B
Sat 08:53:58 AM 36.4390 25.1950 114° Southeast 506 582 39,000  Level FlightAware ADS-B
Sat 08:54:38 AM 36.4130 25.2660 114° Southeast 506 582 39,000  Level FlightAware ADS-B
Sat 08:55:14 AM 36.3780 25.3640 114° Southeast 504 580 39,000  Level FlightAware ADS-B
Sat 08:55:55 AM 36.3420 25.4640 114° Southeast 503 579 39,000  Level FlightAware ADS-B
Sat 08:56:36 AM 36.3000 25.5800 114° Southeast 501 577 39,000  Level FlightAware ADS-B
Sat 08:57:16 AM 36.2510 25.7160 114° Southeast 500 575 39,000  Level FlightAware ADS-B
Sat 08:58:00 AM 36.2090 25.8310 114° Southeast 497 572 39,000  Level FlightAware ADS-B
Sat 08:58:44 AM 36.1720 25.9290 115° Southeast 496 571 39,000  Level FlightAware ADS-B
Sat 08:59:26 AM 36.1400 26.0190 114° Southeast 494 568 39,000  Level FlightAware ADS-B
Sat 09:00:14 AM 36.0820 26.1760 115° Southeast 493 567 39,000  Level FlightAware ADS-B
Sat 09:00:58 AM 36.0400 26.2890 115° Southeast 494 568 39,000  Level FlightAware ADS-B
Sat 09:01:32 AM 36.0080 26.3760 114° Southeast 495 570 39,000  Level FlightAware ADS-B
Sat 09:02:24 AM 35.9690 26.4790 115° Southeast 496 571 39,000  Level FlightAware ADS-B
Sat 09:03:07 AM 35.9260 26.5970 114° Southeast 496 571 39,000  Level FlightAware ADS-B
Sat 09:03:54 AM 35.8720 26.7410 115° Southeast 496 571 39,000  Level FlightAware ADS-B
Sat 09:04:32 AM 35.8360 26.8330 116° Southeast 495 570 39,000  Level FlightAware ADS-B
Sat 09:05:13 AM 35.7980 26.9380 114° Southeast 494 568 39,000  Level FlightAware ADS-B
Sat 09:05:50 AM 35.7700 27.0120 115° Southeast 494 568 39,000  Level FlightAware ADS-B
Sat 09:07:10 AM 35.7070 27.1770 115° Southeast 495 570 39,000  Level FlightAware ADS-B
Sat 09:07:45 AM 35.6780 27.2530 115° Southeast 495 570 39,000  Level FlightAware ADS-B
Sat 09:08:21 AM 35.6480 27.3310 115° Southeast 495 570 39,000  Level FlightAware ADS-B
Sat 09:09:09 AM 35.6090 27.4350 115° Southeast 495 570 39,000  Level FlightAware ADS-B
Sat 09:09:37 AM 35.5860 27.4960 115° Southeast 495 570 39,000  Level FlightAware ADS-B
Sat 09:10:26 AM 35.5450 27.6020 115° Southeast 495 570 39,000  Level FlightAware ADS-B
Sat 09:11:02 AM 35.5160 27.6800 115° Southeast 495 570 39,000  Level FlightAware ADS-B
Sat 09:11:40 AM 35.4840 27.7630 115° Southeast 495 570 39,000  Level FlightAware ADS-B
Sat 09:12:27 AM 35.3730 28.0420 116° Southeast 495 570 39,000  Level FlightAware ADS-B
Sat 09:13:11 AM 35.3310 28.1480 116° Southeast 494 568 39,000  Level FlightAware ADS-B
Sat 09:13:51 AM 35.3010 28.2230 116° Southeast 494 568 39,000  Level FlightAware ADS-B
Sat 09:14:27 AM 35.2660 28.3140 115° Southeast 493 567 39,000  Level FlightAware ADS-B
Sat 09:15:10 AM 35.2230 28.4220 116° Southeast 493 567 39,000  Level FlightAware ADS-B
Sat 09:15:52 AM 35.1720 28.5520 116° Southeast 492 566 39,000  Level FlightAware ADS-B
Sat 09:16:27 AM 35.1350 28.6420 117° Southeast 492 566 39,000  Level FlightAware ADS-B
Sat 09:17:26 AM 35.0850 28.7720 115° Southeast 491 565 39,000  Level FlightAware ADS-B
Sat 09:18:02 AM 35.0450 28.8720 116° Southeast 490 564 39,000  Level FlightAware ADS-B
Sat 09:18:47 AM 35.0000 28.9810 117° Southeast 486 559 39,000  Level FlightAware ADS-B
Sat 09:19:27 AM 34.9680 29.0650 115° Southeast 486 559 39,000  Level FlightAware ADS-B
Sat 09:20:13 AM 34.9090 29.2050 117° Southeast 488 562 39,000  Level FlightAware ADS-B
Sat 09:21:07 AM 34.8560 29.3360 116° Southeast 484 557 39,000  Level FlightAware ADS-B
Sat 09:21:48 AM 34.8140 29.4390 116° Southeast 484 557 39,000  Level FlightAware ADS-B
Sat 09:22:30 AM 34.7850 29.5100 116° Southeast 484 557 39,000  Level FlightAware ADS-B
Sat 09:23:41 AM 34.7190 29.6730 116° Southeast 484 557 39,000  Level FlightAware ADS-B
Sat 09:24:24 AM 34.6850 29.7630 115° Southeast 484 557 39,000  Level FlightAware ADS-B
Sat 09:24:50 AM 34.6470 29.8460 119° Southeast 485 558 39,000  Level FlightAware ADS-B
Sat 09:25:32 AM 34.6130 29.9340 115° Southeast 485 558 39,000  Level FlightAware ADS-B
Sat 09:26:14 AM 34.5480 30.0740 119° Southeast 485 558 39,000  Level FlightAware ADS-B
Sat 09:26:52 AM 34.5020 30.1700 120° Southeast 483 556 39,000  Level FlightAware ADS-B
Sat 09:27:38 AM 34.4490 30.2800 120° Southeast 483 556 39,000  Level FlightAware ADS-B
Sat 09:28:30 AM 34.3900 30.4020 120° Southeast 483 556 39,000  Level FlightAware ADS-B
Sat 09:29:04 AM 34.3520 30.4830 120° Southeast 483 556 39,000  Level FlightAware ADS-B
Sat 09:29:40 AM 34.3190 30.5510 120° Southeast 483 556 39,000  Level FlightAware ADS-B
Sat 09:30:22 AM 34.2780 30.6350 121° Southeast 482 555 39,000  Level FlightAware ADS-B
Sat 09:31:03 AM 34.2320 30.7300 120° Southeast 482 555 39,000  Level FlightAware ADS-B
Sat 09:32:02 AM 34.1640 30.8700 120° Southeast 483 556 39,000  Level FlightAware ADS-B
Sat 09:32:38 AM 34.1120 30.9770 120° Southeast 484 557 39,000  Level FlightAware ADS-B
Sat 09:33:20 AM 34.0670 31.0700 120° Southeast 484 557 39,000  Level FlightAware ADS-B
Sat 09:34:02 AM 34.0160 31.1720 121° Southeast 483 556 39,000  Level FlightAware ADS-B
Sat 09:34:45 AM 33.9650 31.2760 121° Southeast 483 556 39,000  Level FlightAware ADS-B
Sat 09:35:28 AM 33.9190 31.3710 120° Southeast 479 551 39,000  Level FlightAware ADS-B
Sat 09:36:12 AM 33.8850 31.4380 121° Southeast 484 557 39,000  Level FlightAware ADS-B
Sat 09:36:49 AM 33.8350 31.5390 121° Southeast 483 556 39,000  Level FlightAware ADS-B
Sat 09:37:42 AM 33.7800 31.6480 121° Southeast 484 557 39,000  Level FlightAware ADS-B
Sat 09:38:33 AM 33.7210 31.7680 121° Southeast 485 558 39,000  Level FlightAware ADS-B
Sat 09:39:18 AM 33.6530 31.9020 121° Southeast 486 559 39,000  Level FlightAware ADS-B
Sat 09:40:04 AM 33.6000 32.0080 121° Southeast 485 558 39,000 -791 Level FlightAware ADS-B
Sat 09:40:49 AM 33.5460 32.1170 121° Southeast 492 566 37,800 -1,361 Descending FlightAware ADS-B
Sat 09:41:41 AM 33.4990 32.2080 122° Southeast 497 572 36,800 -918 Descending FlightAware ADS-B
Sat 09:42:27 AM 33.4470 32.3120 121° Southeast 498 573 36,300 -1,429 Descending FlightAware ADS-B
Sat 09:43:05 AM 33.3970 32.4090 122° Southeast 502 578 34,800 -1,527 Descending FlightAware ADS-B
Sat 09:44:17 AM 33.2990 32.6030 121° Southeast 494 568 33,500 -971 Descending FlightAware ADS-B
Sat 09:44:50 AM 33.2610 32.6770 122° Southeast 491 565 33,100 -725 Descending FlightAware ADS-B
Sat 09:45:48 AM 33.2000 32.7950 122° Southeast 490 564 32,400 -816 Descending FlightAware ADS-B
Sat 09:46:33 AM 33.1520 32.8890 121° Southeast 487 560 31,700 -1,685 Descending FlightAware ADS-B
Sat 09:47:17 AM 33.0970 32.9970 121° Southeast 473 544 29,900 -2,593 Descending FlightAware ADS-B
Sat 09:47:54 AM 33.0420 33.1010 122° Southeast 454 522 28,200 -2,444 Descending FlightAware ADS-B
Sat 09:48:38 AM 32.9950 33.1910 122° Southeast 440 506 26,600 -2,084 Descending FlightAware ADS-B
Sat 09:49:29 AM 32.9380 33.3010 122° Southeast 446 513 24,900 -1,761 Descending FlightAware ADS-B
Sat 09:50:10 AM 32.9080 33.3590 122° Southeast 434 499 23,900 -1,671 Descending FlightAware ADS-B
Sat 09:50:48 AM 32.8690 33.4350 121° Southeast 420 483 22,700 -2,233 Descending FlightAware ADS-B
Sat 09:51:36 AM 32.8050 33.5540 123° Southeast 430 495 20,700 -2,200 Descending FlightAware ADS-B
Sat 09:52:18 AM 32.7620 33.6370 122° Southeast 418 481 19,400 -1,884 Descending FlightAware ADS-B
Sat 09:53:02 AM 32.7180 33.7210 122° Southeast 402 463 18,000 -1,880 Descending FlightAware ADS-B
Sat 09:53:41 AM 32.6790 33.7950 122° Southeast 389 448 16,800 -1,853 Descending FlightAware ADS-B
Sat 09:54:10 AM 32.6520 33.8460 122° Southeast 379 436 15,900 -1,059 Descending FlightAware ADS-B
Sat 09:55:06 AM 32.6050 33.9350 122° Southeast 374 430 15,300 -1,706 Descending FlightAware ADS-B
Sat 09:55:52 AM 32.5580 34.0230 122° Southeast 384 442 13,000 -2,400 Descending FlightAware ADS-B
Sat 09:56:36 AM 32.5160 34.1030 122° Southeast 367 422 11,700 -1,553 Descending FlightAware ADS-B
Sat 09:57:17 AM 32.4770 34.1690 125° Southeast 346 398 10,800 -880 Descending FlightAware ADS-B
Sat 09:57:51 AM 32.4410 34.2130 134° Southeast 318 366 10,600 -429 Descending FlightAware ADS-B
Sat 09:58:27 AM 32.4040 34.2570 135° Southeast 291 335 10,300 -600 Descending FlightAware ADS-B
Sat 09:58:51 AM 32.3830 34.2810 136° Southeast 280 322 10,000 -360 Descending FlightAware ADS-B
Sat 09:59:17 AM 32.3630 34.3050 135° Southeast 280 322 10,000  Level FlightAware ADS-B
Sat 09:59:53 AM 32.3350 34.3380 135° Southeast 280 322 10,000  Level FlightAware ADS-B
Sat 10:00:05 AM 32.3250 34.3490 137° Southeast 280 322 10,000  Level FlightAware ADS-B
Sat 10:00:31 AM 32.3050 34.3730 135° Southeast 280 322 10,000  Level FlightAware ADS-B
Sat 10:00:43 AM 32.2960 34.3840 134° Southeast 280 322 10,000 -1,568 Level FlightAware ADS-B
Sat 10:03:00 AM 32.0909 34.6875 125° Southeast  Level FlightAware Approximate
Sat 10:03:27 AM 32.1620 34.5950 125° Southeast 273 314 5,400  Level FlightAware ADS-B
Sat 10:03:53 AM 32.1370 34.6370 125° Southeast 274 315 5,200 -279 Descending FlightAware ADS-B
Sat 10:04:10 AM 32.1260 34.6580 122° Southeast 274 315 5,200  Level FlightAware ADS-B
Sat 10:04:35 AM 32.1100 34.6870 123° Southeast 275 316 5,200  Level FlightAware ADS-B
Sat 10:05:05 AM 32.0900 34.7240 123° Southeast 277 319 5,200  Level FlightAware ADS-B
Sat 10:05:41 AM 32.0650 34.7680 124° Southeast 247 284 5,200 -103 Level FlightAware ADS-B
Sat 10:06:03 AM 32.0510 34.7860 133° Southeast 245 282 5,100 -286 Descending FlightAware ADS-B
Sat 10:06:44 AM 32.0250 34.8150 137° Southeast 242 278 4,900 -429 Descending FlightAware ADS-B
Sat 10:07:13 AM 32.0040 34.8390 136° Southeast 233 268 4,600 -1,149 Descending FlightAware ADS-B
Sat 10:07:31 AM 31.9870 34.8590 135° Southeast 233 268 4,000 -1,957 Descending FlightAware ADS-B
Sat 10:07:59 AM 31.9730 34.8890 119° Southeast 224 258 3,100 -982 Descending FlightAware ADS-B
Sat 10:08:26 AM 31.9700 34.9170 97° East 224 258 3,100  Level FlightAware ADS-B
Sat 10:10:37 AM 32.0210 34.9120 355° North 700 -1,099 Descending FlightAware ADS-B
Sat 10:11:07 AM 32.0170 34.8860 260° West 145 167 -1,400 Descending FlightAware ADS-B
Sat 10:11:38 AM 32.0150 34.8730 260° West 43 49  Level FlightAware ADS-B
Sat 10:12:02 AM 32.0140 34.8680 257° West 33 38  Level FlightAware ADS-B
Sat 10:12:18 AM 32.0130 34.8660 239° Southwest 19 22  Level FlightAware ADS-B

Login

Don't have an account? Register now (free) for customized features, flight alerts, and more!